sensor_id;sensor_type;location;lat;lon;timestamp;temperature;humidity
78479;SHT31;67769;51.972;5.668;2024-02-23T08:34:22;20.6;51.5
78479;SHT31;67769;51.972;5.668;2024-02-23T08:36:51;20.7;51.2
78479;SHT31;67769;51.972;5.668;2024-02-23T08:39:19;20.7;50.9
78479;SHT31;67769;51.972;5.668;2024-02-23T08:41:49;20.8;51.0
78479;SHT31;67769;51.972;5.668;2024-02-23T08:46:05;21.7;49.7
78479;SHT31;67769;51.972;5.668;2024-02-23T08:48:34;21.3;50.1
78479;SHT31;67769;51.972;5.668;2024-02-23T08:51:03;21.3;50.2
78479;SHT31;67769;51.972;5.668;2024-02-23T08:53:32;21.3;49.8
78479;SHT31;67769;51.972;5.668;2024-02-23T08:56:00;21.3;50.2
78479;SHT31;67769;51.972;5.668;2024-02-23T09:17:33;21.5;49.1
78479;SHT31;67769;51.972;5.668;2024-02-23T09:20:02;21.6;48.9
78479;SHT31;67769;51.972;5.668;2024-02-23T09:22:31;21.6;48.7
78479;SHT31;67769;51.972;5.668;2024-02-23T09:24:59;21.6;48.5
78479;SHT31;67769;51.972;5.668;2024-02-23T09:27:28;21.6;48.4
78479;SHT31;67769;51.972;5.668;2024-02-23T09:29:57;21.6;48.4
78479;SHT31;67769;51.972;5.668;2024-02-23T09:32:26;21.6;48.3
78479;SHT31;67769;51.972;5.668;2024-02-23T09:34:54;21.7;48.1
78479;SHT31;67769;51.972;5.668;2024-02-23T09:37:23;21.7;48.1
78479;SHT31;67769;51.972;5.668;2024-02-23T09:39:51;21.7;48.1
78479;SHT31;67769;51.972;5.668;2024-02-23T09:42:22;21.8;48.1
78479;SHT31;67769;51.972;5.668;2024-02-23T09:44:59;21.8;48.0
78479;SHT31;67769;51.972;5.668;2024-02-23T09:47:29;21.8;47.8
78479;SHT31;67769;51.972;5.668;2024-02-23T09:50:02;21.9;47.7
78479;SHT31;67769;51.972;5.668;2024-02-23T09:52:32;21.9;47.6
78479;SHT31;67769;51.972;5.668;2024-02-23T09:55:00;22.0;47.5
78479;SHT31;67769;51.972;5.668;2024-02-23T09:57:30;22.0;47.2
78479;SHT31;67769;51.972;5.668;2024-02-23T09:59:59;22.0;47.3
78479;SHT31;67769;51.972;5.668;2024-02-23T10:02:32;22.1;47.1
78479;SHT31;67769;51.972;5.668;2024-02-23T10:05:01;22.1;47.1
78479;SHT31;67769;51.972;5.668;2024-02-23T10:07:32;22.1;46.9
78479;SHT31;67769;51.972;5.668;2024-02-23T10:16:41;22.2;46.7
78479;SHT31;67769;51.972;5.668;2024-02-23T10:19:10;22.3;46.5
78479;SHT31;67769;51.972;5.668;2024-02-23T10:21:38;22.3;46.4
78479;SHT31;67769;51.972;5.668;2024-02-23T10:24:07;22.3;46.1
78479;SHT31;67769;51.972;5.668;2024-02-23T10:26:35;22.3;46.1
78479;SHT31;67769;51.972;5.668;2024-02-23T10:29:06;22.3;46.0
78479;SHT31;67769;51.972;5.668;2024-02-23T10:31:35;22.3;45.9
78479;SHT31;67769;51.972;5.668;2024-02-23T10:34:07;22.3;45.8
78479;SHT31;67769;51.972;5.668;2024-02-23T10:36:41;22.4;45.8
78479;SHT31;67769;51.972;5.668;2024-02-23T10:39:18;22.4;45.7
78479;SHT31;67769;51.972;5.668;2024-02-23T10:41:56;22.4;45.5
78479;SHT31;67769;51.972;5.668;2024-02-23T10:44:28;22.4;45.6
78479;SHT31;67769;51.972;5.668;2024-02-23T10:46:58;22.4;45.5
78479;SHT31;67769;51.972;5.668;2024-02-23T10:49:28;22.4;45.5
78479;SHT31;67769;51.972;5.668;2024-02-23T10:51:57;22.4;45.5
78479;SHT31;67769;51.972;5.668;2024-02-23T10:54:26;22.4;45.3
78479;SHT31;67769;51.972;5.668;2024-02-23T10:56:55;22.4;45.3
78479;SHT31;67769;51.972;5.668;2024-02-23T10:59:24;22.4;45.2
78479;SHT31;67769;51.972;5.668;2024-02-23T11:01:56;22.4;45.2
78479;SHT31;67769;51.972;5.668;2024-02-23T11:04:26;22.4;45.5
78479;SHT31;67769;51.972;5.668;2024-02-23T11:06:55;22.4;45.4
78479;SHT31;67769;51.972;5.668;2024-02-23T11:09:25;22.4;45.8
78479;SHT31;67769;51.972;5.668;2024-02-23T11:11:55;22.4;46.0
78479;SHT31;67769;51.972;5.668;2024-02-23T11:14:35;22.4;46.0
78479;SHT31;67769;51.972;5.668;2024-02-23T11:17:05;22.4;45.6
78479;SHT31;67769;51.972;5.668;2024-02-23T11:19:35;22.3;45.3
78479;SHT31;67769;51.972;5.668;2024-02-23T11:22:04;22.3;45.1
78479;SHT31;67769;51.972;5.668;2024-02-23T11:24:33;22.3;44.7
78479;SHT31;67769;51.972;5.668;2024-02-23T11:27:01;22.3;44.5
78479;SHT31;67769;51.972;5.668;2024-02-23T11:29:34;22.3;44.5
78479;SHT31;67769;51.972;5.668;2024-02-23T11:32:14;22.3;44.6
78479;SHT31;67769;51.972;5.668;2024-02-23T11:34:56;22.3;44.5
78479;SHT31;67769;51.972;5.668;2024-02-23T11:37:28;22.2;44.7
78479;SHT31;67769;51.972;5.668;2024-02-23T11:39:57;22.2;45.4
78479;SHT31;67769;51.972;5.668;2024-02-23T11:42:27;22.2;45.5
78479;SHT31;67769;51.972;5.668;2024-02-23T11:44:56;22.2;45.9
78479;SHT31;67769;51.972;5.668;2024-02-23T11:47:25;22.2;44.9
78479;SHT31;67769;51.972;5.668;2024-02-23T11:49:55;22.2;44.7
78479;SHT31;67769;51.972;5.668;2024-02-23T11:52:23;22.2;44.3
78479;SHT31;67769;51.972;5.668;2024-02-23T11:54:52;22.2;44.6
78479;SHT31;67769;51.972;5.668;2024-02-23T11:57:22;22.3;44.9
78479;SHT31;67769;51.972;5.668;2024-02-23T11:59:52;22.3;45.5
78479;SHT31;67769;51.972;5.668;2024-02-23T12:02:21;22.3;45.5
78479;SHT31;67769;51.972;5.668;2024-02-23T12:04:49;22.3;45.2
78479;SHT31;67769;51.972;5.668;2024-02-23T12:07:18;22.3;45.2
78479;SHT31;67769;51.972;5.668;2024-02-23T12:09:48;22.3;45.7
78479;SHT31;67769;51.972;5.668;2024-02-23T12:12:17;22.3;45.5
78479;SHT31;67769;51.972;5.668;2024-02-23T12:14:45;22.4;45.5
78479;SHT31;67769;51.972;5.668;2024-02-23T12:17:14;22.4;45.3
78479;SHT31;67769;51.972;5.668;2024-02-23T12:19:42;22.4;45.3
78479;SHT31;67769;51.972;5.668;2024-02-23T12:22:11;22.4;45.6
78479;SHT31;67769;51.972;5.668;2024-02-23T12:24:41;22.4;45.3
78479;SHT31;67769;51.972;5.668;2024-02-23T12:27:10;22.4;45.5
78479;SHT31;67769;51.972;5.668;2024-02-23T12:29:38;22.5;45.6
78479;SHT31;67769;51.972;5.668;2024-02-23T12:32:07;22.5;44.9
78479;SHT31;67769;51.972;5.668;2024-02-23T12:34:36;22.5;44.8
78479;SHT31;67769;51.972;5.668;2024-02-23T12:37:07;22.5;44.8
78479;SHT31;67769;51.972;5.668;2024-02-23T12:39:35;22.5;44.9
78479;SHT31;67769;51.972;5.668;2024-02-23T12:42:04;22.5;44.7
78479;SHT31;67769;51.972;5.668;2024-02-23T12:44:33;22.5;44.7
78479;SHT31;67769;51.972;5.668;2024-02-23T12:47:01;22.5;44.6
78479;SHT31;67769;51.972;5.668;2024-02-23T12:49:30;22.6;44.5
78479;SHT31;67769;51.972;5.668;2024-02-23T12:52:00;22.6;44.4
78479;SHT31;67769;51.972;5.668;2024-02-23T12:54:29;22.6;44.4
78479;SHT31;67769;51.972;5.668;2024-02-23T12:56:58;22.6;44.3
78479;SHT31;67769;51.972;5.668;2024-02-23T12:59:28;22.6;44.3
78479;SHT31;67769;51.972;5.668;2024-02-23T13:01:56;22.6;44.2
78479;SHT31;67769;51.972;5.668;2024-02-23T13:04:25;22.6;44.3
78479;SHT31;67769;51.972;5.668;2024-02-23T13:06:54;22.6;44.3
78479;SHT31;67769;51.972;5.668;2024-02-23T13:09:26;22.6;44.4
78479;SHT31;67769;51.972;5.668;2024-02-23T13:11:55;22.6;44.4
78479;SHT31;67769;51.972;5.668;2024-02-23T13:14:23;22.6;44.4
78479;SHT31;67769;51.972;5.668;2024-02-23T13:16:52;22.6;44.3
78479;SHT31;67769;51.972;5.668;2024-02-23T13:19:20;22.6;44.3
78479;SHT31;67769;51.972;5.668;2024-02-23T13:21:49;22.6;44.3
78479;SHT31;67769;51.972;5.668;2024-02-23T13:24:19;22.6;44.3
78479;SHT31;67769;51.972;5.668;2024-02-23T13:26:48;22.6;44.3
78479;SHT31;67769;51.972;5.668;2024-02-23T13:29:16;22.6;44.3
78479;SHT31;67769;51.972;5.668;2024-02-23T13:31:45;22.6;44.2
78479;SHT31;67769;51.972;5.668;2024-02-23T13:34:13;22.5;44.2
78479;SHT31;67769;51.972;5.668;2024-02-23T13:36:44;22.5;44.2
78479;SHT31;67769;51.972;5.668;2024-02-23T13:39:13;22.5;44.1
78479;SHT31;67769;51.972;5.668;2024-02-23T13:41:41;22.5;44.1
78479;SHT31;67769;51.972;5.668;2024-02-23T13:44:10;22.5;44.0
78479;SHT31;67769;51.972;5.668;2024-02-23T13:46:39;22.5;44.1
78479;SHT31;67769;51.972;5.668;2024-02-23T13:49:08;22.5;44.1
78479;SHT31;67769;51.972;5.668;2024-02-23T13:51:39;22.5;44.1
78479;SHT31;67769;51.972;5.668;2024-02-23T13:54:07;22.5;44.2
78479;SHT31;67769;51.972;5.668;2024-02-23T13:56:35;22.5;44.2
78479;SHT31;67769;51.972;5.668;2024-02-23T13:59:04;22.5;44.2
78479;SHT31;67769;51.972;5.668;2024-02-23T14:01:32;22.5;44.2
78479;SHT31;67769;51.972;5.668;2024-02-23T14:04:08;22.5;44.2
78479;SHT31;67769;51.972;5.668;2024-02-23T14:06:36;22.5;44.4
78479;SHT31;67769;51.972;5.668;2024-02-23T14:09:05;22.5;44.5
78479;SHT31;67769;51.972;5.668;2024-02-23T14:11:33;22.5;44.4
78479;SHT31;67769;51.972;5.668;2024-02-23T14:14:02;22.5;44.6
78479;SHT31;67769;51.972;5.668;2024-02-23T14:16:31;22.4;44.6
78479;SHT31;67769;51.972;5.668;2024-02-23T14:18:59;22.4;44.6
78479;SHT31;67769;51.972;5.668;2024-02-23T14:21:28;22.4;44.5
78479;SHT31;67769;51.972;5.668;2024-02-23T14:23:57;22.4;44.5
78479;SHT31;67769;51.972;5.668;2024-02-23T14:26:25;22.4;44.4
78479;SHT31;67769;51.972;5.668;2024-02-23T14:28:54;22.4;44.5
78479;SHT31;67769;51.972;5.668;2024-02-23T14:31:22;22.5;44.5
78479;SHT31;67769;51.972;5.668;2024-02-23T14:33:52;22.5;44.5
78479;SHT31;67769;51.972;5.668;2024-02-23T14:36:20;22.5;44.6
78479;SHT31;67769;51.972;5.668;2024-02-23T14:38:50;22.5;44.5
78479;SHT31;67769;51.972;5.668;2024-02-23T14:41:21;22.5;44.6
78479;SHT31;67769;51.972;5.668;2024-02-23T14:43:49;22.5;44.6
78479;SHT31;67769;51.972;5.668;2024-02-23T14:46:17;22.5;44.5
78479;SHT31;67769;51.972;5.668;2024-02-23T14:48:46;22.5;44.5
78479;SHT31;67769;51.972;5.668;2024-02-23T14:51:16;22.5;44.5
78479;SHT31;67769;51.972;5.668;2024-02-23T14:53:44;22.5;44.5
78479;SHT31;67769;51.972;5.668;2024-02-23T14:56:13;22.4;44.5
78479;SHT31;67769;51.972;5.668;2024-02-23T14:58:41;22.4;44.5
78479;SHT31;67769;51.972;5.668;2024-02-23T15:01:11;22.4;44.4
78479;SHT31;67769;51.972;5.668;2024-02-23T15:03:40;22.4;44.5
78479;SHT31;67769;51.972;5.668;2024-02-23T15:06:09;22.4;44.4
78479;SHT31;67769;51.972;5.668;2024-02-23T15:08:37;22.4;44.4
78479;SHT31;67769;51.972;5.668;2024-02-23T15:11:06;22.4;44.4
78479;SHT31;67769;51.972;5.668;2024-02-23T15:13:35;22.4;44.4
78479;SHT31;67769;51.972;5.668;2024-02-23T15:16:03;22.4;44.4
78479;SHT31;67769;51.972;5.668;2024-02-23T15:18:32;22.4;44.4
78479;SHT31;67769;51.972;5.668;2024-02-23T15:21:01;22.4;44.4
78479;SHT31;67769;51.972;5.668;2024-02-23T15:23:30;22.4;44.4
78479;SHT31;67769;51.972;5.668;2024-02-23T15:25:58;22.4;44.4
78479;SHT31;67769;51.972;5.668;2024-02-23T15:28:27;22.4;44.4
78479;SHT31;67769;51.972;5.668;2024-02-23T15:30:55;22.3;44.3
78479;SHT31;67769;51.972;5.668;2024-02-23T15:33:24;22.3;44.2
78479;SHT31;67769;51.972;5.668;2024-02-23T15:35:52;22.3;44.5
78479;SHT31;67769;51.972;5.668;2024-02-23T15:38:20;22.3;44.6
78479;SHT31;67769;51.972;5.668;2024-02-23T15:40:49;22.3;44.7
78479;SHT31;67769;51.972;5.668;2024-02-23T15:43:17;22.3;44.7
78479;SHT31;67769;51.972;5.668;2024-02-23T15:45:47;22.3;44.8
78479;SHT31;67769;51.972;5.668;2024-02-23T15:48:15;22.3;44.9
78479;SHT31;67769;51.972;5.668;2024-02-23T15:50:44;22.3;44.9
78479;SHT31;67769;51.972;5.668;2024-02-23T15:53:13;22.3;44.9
78479;SHT31;67769;51.972;5.668;2024-02-23T15:55:41;22.3;44.9
78479;SHT31;67769;51.972;5.668;2024-02-23T15:58:10;22.3;45.0
78479;SHT31;67769;51.972;5.668;2024-02-23T16:00:42;22.3;45.0
78479;SHT31;67769;51.972;5.668;2024-02-23T16:03:11;22.3;45.0
78479;SHT31;67769;51.972;5.668;2024-02-23T16:05:39;22.3;45.0
78479;SHT31;67769;51.972;5.668;2024-02-23T16:08:09;22.2;45.0
78479;SHT31;67769;51.972;5.668;2024-02-23T16:10:38;22.2;45.0
78479;SHT31;67769;51.972;5.668;2024-02-23T16:13:08;22.2;45.0
78479;SHT31;67769;51.972;5.668;2024-02-23T16:15:36;22.2;45.0
78479;SHT31;67769;51.972;5.668;2024-02-23T16:18:05;22.2;45.0
78479;SHT31;67769;51.972;5.668;2024-02-23T16:20:34;22.2;45.1
78479;SHT31;67769;51.972;5.668;2024-02-23T16:23:03;22.2;45.2
78479;SHT31;67769;51.972;5.668;2024-02-23T16:25:31;22.2;45.3
78479;SHT31;67769;51.972;5.668;2024-02-23T16:28:00;22.1;45.3
78479;SHT31;67769;51.972;5.668;2024-02-23T16:30:29;22.1;45.3
78479;SHT31;67769;51.972;5.668;2024-02-23T16:32:58;22.1;45.3
78479;SHT31;67769;51.972;5.668;2024-02-23T16:35:27;22.1;45.3
78479;SHT31;67769;51.972;5.668;2024-02-23T16:37:55;22.1;45.3
78479;SHT31;67769;51.972;5.668;2024-02-23T16:40:24;22.1;45.3
78479;SHT31;67769;51.972;5.668;2024-02-23T16:42:56;22.1;45.4
78479;SHT31;67769;51.972;5.668;2024-02-23T16:45:26;22.1;45.4
78479;SHT31;67769;51.972;5.668;2024-02-23T16:47:55;22.1;45.5
78479;SHT31;67769;51.972;5.668;2024-02-23T16:50:24;22.1;45.5
78479;SHT31;67769;51.972;5.668;2024-02-23T16:52:52;22.1;45.5
78479;SHT31;67769;51.972;5.668;2024-02-23T16:55:23;22.0;45.5
78479;SHT31;67769;51.972;5.668;2024-02-23T16:57:51;22.0;45.5
78479;SHT31;67769;51.972;5.668;2024-02-23T17:00:20;22.0;45.5
78479;SHT31;67769;51.972;5.668;2024-02-23T17:02:49;22.0;45.5
78479;SHT31;67769;51.972;5.668;2024-02-23T17:05:18;22.0;45.5
78479;SHT31;67769;51.972;5.668;2024-02-23T17:07:46;22.0;45.5
78479;SHT31;67769;51.972;5.668;2024-02-23T17:10:15;22.0;45.6
78479;SHT31;67769;51.972;5.668;2024-02-23T17:12:44;22.0;45.6
78479;SHT31;67769;51.972;5.668;2024-02-23T17:15:14;22.0;45.6
78479;SHT31;67769;51.972;5.668;2024-02-23T17:17:43;22.0;45.7
78479;SHT31;67769;51.972;5.668;2024-02-23T17:20:13;22.0;45.7
78479;SHT31;67769;51.972;5.668;2024-02-23T17:22:42;22.0;45.6
78479;SHT31;67769;51.972;5.668;2024-02-23T17:25:10;22.0;45.6
78479;SHT31;67769;51.972;5.668;2024-02-23T17:27:40;22.0;45.5
78479;SHT31;67769;51.972;5.668;2024-02-23T17:30:09;22.0;45.5
78479;SHT31;67769;51.972;5.668;2024-02-23T17:32:38;22.0;45.5
78479;SHT31;67769;51.972;5.668;2024-02-23T17:35:08;22.0;45.4
78479;SHT31;67769;51.972;5.668;2024-02-23T17:37:38;22.0;45.5
78479;SHT31;67769;51.972;5.668;2024-02-23T17:40:08;21.9;45.6
78479;SHT31;67769;51.972;5.668;2024-02-23T17:42:36;21.9;45.9
78479;SHT31;67769;51.972;5.668;2024-02-23T17:45:06;21.9;45.8
78479;SHT31;67769;51.972;5.668;2024-02-23T17:47:35;21.9;46.0
78479;SHT31;67769;51.972;5.668;2024-02-23T17:50:05;21.9;46.0
78479;SHT31;67769;51.972;5.668;2024-02-23T17:52:34;21.9;46.0
78479;SHT31;67769;51.972;5.668;2024-02-23T17:55:05;22.0;46.2
78479;SHT31;67769;51.972;5.668;2024-02-23T17:57:33;22.0;46.2
78479;SHT31;67769;51.972;5.668;2024-02-23T18:00:02;22.0;46.2
78479;SHT31;67769;51.972;5.668;2024-02-23T18:02:31;22.0;46.3
78479;SHT31;67769;51.972;5.668;2024-02-23T18:05:00;22.0;46.3
78479;SHT31;67769;51.972;5.668;2024-02-23T18:07:29;22.0;46.3
78479;SHT31;67769;51.972;5.668;2024-02-23T18:09:57;22.0;46.3
78479;SHT31;67769;51.972;5.668;2024-02-23T18:12:26;22.1;46.3
78479;SHT31;67769;51.972;5.668;2024-02-23T18:14:54;22.1;46.3
78479;SHT31;67769;51.972;5.668;2024-02-23T18:17:25;22.1;46.3
78479;SHT31;67769;51.972;5.668;2024-02-23T18:19:53;22.1;46.4
78479;SHT31;67769;51.972;5.668;2024-02-23T18:22:22;22.1;46.4
78479;SHT31;67769;51.972;5.668;2024-02-23T18:24:52;22.2;46.5
78479;SHT31;67769;51.972;5.668;2024-02-23T18:27:21;22.2;46.7
78479;SHT31;67769;51.972;5.668;2024-02-23T18:29:52;22.2;46.7
78479;SHT31;67769;51.972;5.668;2024-02-23T18:32:20;22.2;46.8
78479;SHT31;67769;51.972;5.668;2024-02-23T18:34:49;22.2;46.8
78479;SHT31;67769;51.972;5.668;2024-02-23T18:37:17;22.3;46.8
78479;SHT31;67769;51.972;5.668;2024-02-23T18:39:46;22.3;47.1
78479;SHT31;67769;51.972;5.668;2024-02-23T18:42:14;22.3;47.0
78479;SHT31;67769;51.972;5.668;2024-02-23T18:44:43;22.4;46.9
78479;SHT31;67769;51.972;5.668;2024-02-23T18:47:12;22.4;48.9
78479;SHT31;67769;51.972;5.668;2024-02-23T18:49:41;22.4;50.5
78479;SHT31;67769;51.972;5.668;2024-02-23T18:52:11;22.5;48.8
78479;SHT31;67769;51.972;5.668;2024-02-23T18:54:40;22.6;50.0
78479;SHT31;67769;51.972;5.668;2024-02-23T18:57:08;22.7;48.9
78479;SHT31;67769;51.972;5.668;2024-02-23T18:59:38;22.8;49.0
78479;SHT31;67769;51.972;5.668;2024-02-23T19:02:07;22.8;50.0
78479;SHT31;67769;51.972;5.668;2024-02-23T19:04:35;22.9;47.5
78479;SHT31;67769;51.972;5.668;2024-02-23T19:07:06;23.0;47.4
78479;SHT31;67769;51.972;5.668;2024-02-23T19:09:34;23.0;48.1
78479;SHT31;67769;51.972;5.668;2024-02-23T19:12:03;23.1;47.8
78479;SHT31;67769;51.972;5.668;2024-02-23T19:14:34;23.1;47.5
78479;SHT31;67769;51.972;5.668;2024-02-23T19:17:04;23.1;47.1
78479;SHT31;67769;51.972;5.668;2024-02-23T19:19:33;23.1;46.8
78479;SHT31;67769;51.972;5.668;2024-02-23T19:22:01;23.1;46.5
78479;SHT31;67769;51.972;5.668;2024-02-23T19:24:30;23.1;46.4
78479;SHT31;67769;51.972;5.668;2024-02-23T19:26:58;23.1;46.4
78479;SHT31;67769;51.972;5.668;2024-02-23T19:29:27;23.1;46.4
78479;SHT31;67769;51.972;5.668;2024-02-23T19:31:56;23.0;46.4
78479;SHT31;67769;51.972;5.668;2024-02-23T19:34:24;23.0;46.5
78479;SHT31;67769;51.972;5.668;2024-02-23T19:36:52;23.0;46.5
78479;SHT31;67769;51.972;5.668;2024-02-23T19:39:21;23.0;46.5
78479;SHT31;67769;51.972;5.668;2024-02-23T19:41:50;23.0;46.5
78479;SHT31;67769;51.972;5.668;2024-02-23T19:44:18;22.9;46.5
78479;SHT31;67769;51.972;5.668;2024-02-23T19:46:46;22.9;46.5
78479;SHT31;67769;51.972;5.668;2024-02-23T19:49:15;22.9;46.6
78479;SHT31;67769;51.972;5.668;2024-02-23T19:51:43;22.9;46.6
78479;SHT31;67769;51.972;5.668;2024-02-23T19:54:12;22.9;46.6
78479;SHT31;67769;51.972;5.668;2024-02-23T19:56:43;22.9;46.6
78479;SHT31;67769;51.972;5.668;2024-02-23T19:59:12;22.9;46.6
78479;SHT31;67769;51.972;5.668;2024-02-23T20:01:40;22.8;46.6
78479;SHT31;67769;51.972;5.668;2024-02-23T20:04:09;22.8;46.7
78479;SHT31;67769;51.972;5.668;2024-02-23T20:06:37;22.8;46.7
78479;SHT31;67769;51.972;5.668;2024-02-23T20:09:05;22.8;46.7
78479;SHT31;67769;51.972;5.668;2024-02-23T20:11:36;22.9;46.7
78479;SHT31;67769;51.972;5.668;2024-02-23T20:14:04;22.9;46.7
78479;SHT31;67769;51.972;5.668;2024-02-23T20:16:33;22.9;46.7
78479;SHT31;67769;51.972;5.668;2024-02-23T20:19:01;22.9;46.6
78479;SHT31;67769;51.972;5.668;2024-02-23T20:21:31;22.9;46.6
78479;SHT31;67769;51.972;5.668;2024-02-23T20:23:59;22.9;46.6
78479;SHT31;67769;51.972;5.668;2024-02-23T20:26:28;23.0;46.5
78479;SHT31;67769;51.972;5.668;2024-02-23T20:28:56;23.0;46.5
78479;SHT31;67769;51.972;5.668;2024-02-23T20:31:25;23.0;46.4
78479;SHT31;67769;51.972;5.668;2024-02-23T20:33:53;23.0;46.3
78479;SHT31;67769;51.972;5.668;2024-02-23T20:36:22;23.0;46.3
78479;SHT31;67769;51.972;5.668;2024-02-23T20:38:51;23.0;46.2
78479;SHT31;67769;51.972;5.668;2024-02-23T20:41:19;23.0;46.1
78479;SHT31;67769;51.972;5.668;2024-02-23T20:43:50;23.0;46.2
78479;SHT31;67769;51.972;5.668;2024-02-23T20:46:21;23.0;46.2
78479;SHT31;67769;51.972;5.668;2024-02-23T20:48:54;23.0;46.1
78479;SHT31;67769;51.972;5.668;2024-02-23T20:51:23;23.0;46.1
78479;SHT31;67769;51.972;5.668;2024-02-23T20:53:51;23.0;46.2
78479;SHT31;67769;51.972;5.668;2024-02-23T20:56:22;23.0;46.2
78479;SHT31;67769;51.972;5.668;2024-02-23T20:58:53;23.0;46.2
78479;SHT31;67769;51.972;5.668;2024-02-23T21:01:22;23.0;46.3
78479;SHT31;67769;51.972;5.668;2024-02-23T21:03:50;22.9;46.3
78479;SHT31;67769;51.972;5.668;2024-02-23T21:06:19;22.9;46.2
78479;SHT31;67769;51.972;5.668;2024-02-23T21:08:47;22.9;46.3
78479;SHT31;67769;51.972;5.668;2024-02-23T21:11:16;22.9;46.3
78479;SHT31;67769;51.972;5.668;2024-02-23T21:13:44;22.9;46.2
78479;SHT31;67769;51.972;5.668;2024-02-23T21:16:13;22.9;46.2
78479;SHT31;67769;51.972;5.668;2024-02-23T21:18:42;22.9;46.2
78479;SHT31;67769;51.972;5.668;2024-02-23T21:21:10;22.9;46.0
78479;SHT31;67769;51.972;5.668;2024-02-23T21:23:39;22.9;46.0
78479;SHT31;67769;51.972;5.668;2024-02-23T21:26:08;22.9;46.0
78479;SHT31;67769;51.972;5.668;2024-02-23T21:28:37;22.9;46.0
78479;SHT31;67769;51.972;5.668;2024-02-23T21:31:06;22.9;46.0
78479;SHT31;67769;51.972;5.668;2024-02-23T21:33:35;22.8;46.0
78479;SHT31;67769;51.972;5.668;2024-02-23T21:36:05;22.8;46.0
78479;SHT31;67769;51.972;5.668;2024-02-23T21:38:34;22.8;46.0
78479;SHT31;67769;51.972;5.668;2024-02-23T21:41:02;22.8;46.0
78479;SHT31;67769;51.972;5.668;2024-02-23T21:43:32;22.8;46.1
78479;SHT31;67769;51.972;5.668;2024-02-23T21:46:02;22.8;46.1
78479;SHT31;67769;51.972;5.668;2024-02-23T21:48:33;22.8;46.1
78479;SHT31;67769;51.972;5.668;2024-02-23T21:51:02;22.8;46.1
78479;SHT31;67769;51.972;5.668;2024-02-23T21:53:31;22.8;46.1
78479;SHT31;67769;51.972;5.668;2024-02-23T21:56:00;22.8;46.1
78479;SHT31;67769;51.972;5.668;2024-02-23T21:58:30;22.8;46.1
78479;SHT31;67769;51.972;5.668;2024-02-23T22:00:59;22.8;46.0
78479;SHT31;67769;51.972;5.668;2024-02-23T22:03:28;22.7;46.0
78479;SHT31;67769;51.972;5.668;2024-02-23T22:05:58;22.7;45.9
78479;SHT31;67769;51.972;5.668;2024-02-23T22:08:29;22.7;45.9
78479;SHT31;67769;51.972;5.668;2024-02-23T22:10:58;22.7;46.0
78479;SHT31;67769;51.972;5.668;2024-02-23T22:13:26;22.7;45.9
78479;SHT31;67769;51.972;5.668;2024-02-23T22:15:55;22.7;45.9
78479;SHT31;67769;51.972;5.668;2024-02-23T22:18:24;22.7;45.9
78479;SHT31;67769;51.972;5.668;2024-02-23T22:20:54;22.7;45.8
78479;SHT31;67769;51.972;5.668;2024-02-23T22:23:22;22.7;45.8
78479;SHT31;67769;51.972;5.668;2024-02-23T22:25:51;22.7;45.8
78479;SHT31;67769;51.972;5.668;2024-02-23T22:28:20;22.6;45.8
78479;SHT31;67769;51.972;5.668;2024-02-23T22:30:48;22.6;45.9
78479;SHT31;67769;51.972;5.668;2024-02-23T22:33:17;22.6;45.8
78479;SHT31;67769;51.972;5.668;2024-02-23T22:35:45;22.6;45.8
78479;SHT31;67769;51.972;5.668;2024-02-23T22:38:14;22.6;45.8
78479;SHT31;67769;51.972;5.668;2024-02-23T22:40:42;22.6;45.8
78479;SHT31;67769;51.972;5.668;2024-02-23T22:43:11;22.6;45.8
78479;SHT31;67769;51.972;5.668;2024-02-23T22:45:39;22.5;45.8
78479;SHT31;67769;51.972;5.668;2024-02-23T22:48:08;22.5;45.8
78479;SHT31;67769;51.972;5.668;2024-02-23T22:50:38;22.5;45.7
78479;SHT31;67769;51.972;5.668;2024-02-23T22:53:07;22.5;45.7
78479;SHT31;67769;51.972;5.668;2024-02-23T22:55:37;22.5;45.8
78479;SHT31;67769;51.972;5.668;2024-02-23T22:58:05;22.5;45.8
78479;SHT31;67769;51.972;5.668;2024-02-23T23:00:34;22.4;45.5
78479;SHT31;67769;51.972;5.668;2024-02-23T23:03:03;22.4;45.5
78479;SHT31;67769;51.972;5.668;2024-02-23T23:05:32;22.4;45.4
78479;SHT31;67769;51.972;5.668;2024-02-23T23:08:01;22.4;45.3
78479;SHT31;67769;51.972;5.668;2024-02-23T23:10:31;22.4;45.4
78479;SHT31;67769;51.972;5.668;2024-02-23T23:12:59;22.3;45.3
78479;SHT31;67769;51.972;5.668;2024-02-23T23:15:28;22.3;45.3
78479;SHT31;67769;51.972;5.668;2024-02-23T23:17:58;22.3;45.3
78479;SHT31;67769;51.972;5.668;2024-02-23T23:20:26;22.3;45.3
78479;SHT31;67769;51.972;5.668;2024-02-23T23:22:55;22.2;45.3
78479;SHT31;67769;51.972;5.668;2024-02-23T23:25:23;22.2;45.4
78479;SHT31;67769;51.972;5.668;2024-02-23T23:27:53;22.2;45.4
78479;SHT31;67769;51.972;5.668;2024-02-23T23:30:21;22.2;45.4
78479;SHT31;67769;51.972;5.668;2024-02-23T23:32:50;22.2;45.4
78479;SHT31;67769;51.972;5.668;2024-02-23T23:35:18;22.1;45.5
78479;SHT31;67769;51.972;5.668;2024-02-23T23:37:47;22.1;45.6
78479;SHT31;67769;51.972;5.668;2024-02-23T23:40:16;22.1;45.6
78479;SHT31;67769;51.972;5.668;2024-02-23T23:42:45;22.1;45.5
78479;SHT31;67769;51.972;5.668;2024-02-23T23:45:14;22.0;45.5
78479;SHT31;67769;51.972;5.668;2024-02-23T23:47:42;22.0;45.6
78479;SHT31;67769;51.972;5.668;2024-02-23T23:50:11;22.0;45.6
78479;SHT31;67769;51.972;5.668;2024-02-23T23:52:39;22.0;45.5
78479;SHT31;67769;51.972;5.668;2024-02-23T23:55:09;21.9;45.6
78479;SHT31;67769;51.972;5.668;2024-02-23T23:57:38;21.9;45.5
